Time;durP1;ratioP1;P1;durP2;ratioP2;P2;SDS_P1;SDS_P2;PMS_P1;PMS_P2;Temp;Humidity;BMP_temperature;BMP_pressure;BME280_temperature;BME280_humidity;BME280_pressure;Samples;Min_cycle;Max_cycle;Signal;HPM_P1;HPM_P2
2023/10/05 00:03:03;;;;;;;22.67;10.27;;;;;;;17.77;85.99;95998.97;5006123;28;20303;-78
2023/10/05 00:05:28;;;;;;;20.20;10.37;;;;;;;17.72;86.85;95998.03;5025000;28;20230;-78
2023/10/05 00:07:54;;;;;;;20.60;10.37;;;;;;;17.70;86.68;95997.41;5026415;28;20269;-77
2023/10/05 00:10:20;;;;;;;20.37;9.87;;;;;;;17.63;87.28;96000.13;5023647;28;20226;-78
2023/10/05 00:12:47;;;;;;;21.07;10.20;;;;;;;17.65;86.95;95998.06;5024719;28;20231;-77
2023/10/05 00:15:17;;;;;;;18.20;10.07;;;;;;;17.66;87.16;95997.03;5011889;28;20276;-77
2023/10/05 00:17:42;;;;;;;19.37;10.00;;;;;;;17.62;87.50;95995.06;5007740;28;20237;-77
2023/10/05 00:20:14;;;;;;;22.57;9.80;;;;;;;17.62;87.19;95997.69;5008665;28;20234;-77
2023/10/05 00:22:43;;;;;;;21.60;9.87;;;;;;;17.49;87.87;95988.81;5009628;28;20912;-69
2023/10/05 00:25:14;;;;;;;19.50;9.67;;;;;;;17.53;87.81;95993.72;5017258;28;20233;-69
2023/10/05 00:27:39;;;;;;;19.03;10.17;;;;;;;17.54;87.94;95992.66;5008667;28;20244;-69
2023/10/05 00:30:07;;;;;;;20.50;10.13;;;;;;;17.53;87.74;95986.56;5019945;28;20328;-69
2023/10/05 00:32:37;;;;;;;17.10;9.70;;;;;;;17.54;87.68;95987.38;5025765;28;20237;-70
2023/10/05 00:35:24;;;;;;;21.30;10.07;;;;;;;17.55;87.48;95989.00;5018778;28;20230;-68
2023/10/05 00:37:50;;;;;;;19.83;9.67;;;;;;;17.51;87.93;95988.56;4998689;28;20234;-70
2023/10/05 00:40:35;;;;;;;23.30;9.50;;;;;;;17.49;87.93;95988.81;5016948;28;20257;-70
2023/10/05 00:43:12;;;;;;;16.37;9.77;;;;;;;17.47;88.18;95996.16;5006957;28;20237;-70
2023/10/05 00:45:39;;;;;;;19.77;9.80;;;;;;;17.43;88.06;95996.81;5006910;28;20310;-69
2023/10/05 00:48:19;;;;;;;19.67;9.93;;;;;;;17.44;88.01;96004.53;5000605;28;20688;-70
2023/10/05 00:50:46;;;;;;;17.93;10.10;;;;;;;17.41;88.36;95983.75;5023077;28;20319;-69
2023/10/05 00:53:12;;;;;;;17.37;9.70;;;;;;;17.45;88.18;95995.56;5040956;28;20268;-69
2023/10/05 00:55:39;;;;;;;22.53;9.63;;;;;;;17.43;87.99;95987.00;5019924;28;20239;-70
2023/10/05 00:58:12;;;;;;;17.27;9.43;;;;;;;17.42;87.82;95990.69;4991699;28;20238;-70
2023/10/05 01:00:50;;;;;;;20.20;10.03;;;;;;;17.44;87.76;95988.63;5003059;28;20265;-69
2023/10/05 01:03:33;;;;;;;21.53;9.60;;;;;;;17.36;88.75;95996.03;5019575;28;20230;-70
2023/10/05 01:08:54;;;;;;;18.37;9.60;;;;;;;17.33;88.53;95986.69;5027076;28;20619;-69
2023/10/05 01:11:31;;;;;;;24.07;9.50;;;;;;;17.36;88.79;95986.25;5007419;28;20235;-70
2023/10/05 01:13:59;;;;;;;20.47;9.37;;;;;;;17.34;88.55;95992.78;5020556;28;20230;-70
2023/10/05 01:16:25;;;;;;;18.70;9.23;;;;;;;17.31;88.78;95988.75;5024522;28;20305;-70
2023/10/05 01:18:52;;;;;;;17.60;9.23;;;;;;;17.28;89.19;95989.19;4986021;28;20233;-70
2023/10/05 01:21:18;;;;;;;17.23;9.23;;;;;;;17.27;89.00;95979.59;5017650;28;20728;-69
2023/10/05 01:23:47;;;;;;;17.17;8.67;;;;;;;17.26;88.98;95979.81;5039980;28;20250;-71
2023/10/05 01:26:12;;;;;;;17.40;9.13;;;;;;;17.21;89.21;95974.38;5006568;28;20238;-68
2023/10/05 01:28:41;;;;;;;18.07;9.67;;;;;;;17.05;90.32;95982.81;5014349;28;20304;-69
2023/10/05 01:31:12;;;;;;;16.60;9.40;;;;;;;17.08;90.02;95983.19;4984874;28;20226;-69
2023/10/05 01:33:38;;;;;;;25.07;9.37;;;;;;;17.19;89.40;95969.31;5008345;28;20238;-69
2023/10/05 01:36:04;;;;;;;19.00;10.00;;;;;;;17.08;89.90;95972.59;5006689;28;20662;-69
2023/10/05 01:38:37;;;;;;;17.63;9.57;;;;;;;17.07;89.96;95972.84;5040724;28;20244;-69
2023/10/05 01:41:03;;;;;;;21.33;9.53;;;;;;;17.13;89.78;95970.13;5017990;28;20253;-69
2023/10/05 01:43:29;;;;;;;17.33;9.13;;;;;;;17.14;89.70;95974.41;5022436;28;20230;-69
2023/10/05 01:45:56;;;;;;;20.70;9.50;;;;;;;17.17;89.38;95971.31;5022084;28;20592;-69
2023/10/05 01:48:26;;;;;;;21.90;9.47;;;;;;;17.21;88.75;95975.19;5019106;28;21002;-69
2023/10/05 01:50:52;;;;;;;20.17;8.93;;;;;;;17.17;88.76;95979.25;5002941;28;20236;-78
2023/10/05 01:53:18;;;;;;;18.37;8.80;;;;;;;17.22;88.56;95971.50;5007881;28;20669;-77
2023/10/05 01:55:45;;;;;;;15.70;8.60;;;;;;;17.25;87.51;95970.25;4998887;28;20230;-78
2023/10/05 01:58:24;;;;;;;21.60;8.27;;;;;;;17.23;87.74;95973.13;4982478;28;20783;-76
2023/10/05 02:00:50;;;;;;;15.87;8.37;;;;;;;17.14;88.95;95971.78;5017933;28;20238;-77
2023/10/05 02:03:18;;;;;;;17.33;8.87;;;;;;;16.90;90.02;95972.53;5023301;28;20241;-77
2023/10/05 02:05:46;;;;;;;17.57;8.83;;;;;;;16.86;90.11;95971.31;5009921;28;20618;-78
2023/10/05 02:08:14;;;;;;;17.90;8.60;;;;;;;16.90;90.19;95974.38;4995528;28;20427;-78
2023/10/05 02:10:39;;;;;;;16.43;8.30;;;;;;;16.72;90.73;95967.94;5015431;28;20238;-78
2023/10/05 02:13:12;;;;;;;16.93;8.90;;;;;;;16.46;92.79;95972.50;5020126;28;20617;-76
2023/10/05 02:15:40;;;;;;;16.73;8.40;;;;;;;16.42;92.90;95979.25;5000401;28;20234;-77
2023/10/05 02:18:39;;;;;;;20.63;9.10;;;;;;;16.18;94.09;95978.94;5022409;28;20329;-77
2023/10/05 02:23:29;;;;;;;21.23;10.13;;;;;;;16.08;93.71;95972.44;4999824;28;20245;-77
2023/10/05 02:26:00;;;;;;;22.87;9.67;;;;;;;15.87;94.28;95972.69;4987805;28;20230;-77
2023/10/05 02:28:25;;;;;;;21.90;9.67;;;;;;;16.03;93.64;95981.00;5017091;28;20245;-77
2023/10/05 02:30:53;;;;;;;23.67;9.90;;;;;;;15.74;94.06;95983.28;5017004;28;20631;-77
2023/10/05 02:33:23;;;;;;;18.60;9.87;;;;;;;15.78;93.19;95980.03;5021708;28;20244;-77
2023/10/05 02:35:51;;;;;;;21.20;10.10;;;;;;;15.77;92.14;95975.75;5013584;28;20222;-79
2023/10/05 02:38:20;;;;;;;20.93;10.70;;;;;;;15.93;91.09;95977.97;5017641;28;20238;-77
2023/10/05 02:40:54;;;;;;;21.23;9.90;;;;;;;15.79;91.10;95980.81;5005987;28;20272;-76
2023/10/05 02:43:27;;;;;;;21.80;10.33;;;;;;;15.61;91.36;95978.84;5017411;28;20716;-76
2023/10/05 02:46:08;;;;;;;21.07;10.10;;;;;;;15.73;90.86;95984.31;5023651;28;20230;-77
2023/10/05 02:48:35;;;;;;;20.27;10.23;;;;;;;15.77;90.36;95988.97;5037182;28;20268;-77
2023/10/05 02:51:05;;;;;;;19.83;9.83;;;;;;;15.51;90.84;95983.72;4997861;28;20759;-77
2023/10/05 02:53:40;;;;;;;19.77;9.80;;;;;;;15.60;90.95;95986.94;5015204;28;20244;-77
2023/10/05 02:56:27;;;;;;;21.73;10.00;;;;;;;15.61;90.20;95984.13;5006664;28;20233;-78
2023/10/05 02:58:54;;;;;;;20.80;10.23;;;;;;;15.46;90.58;95986.13;5003790;28;20226;-78
2023/10/05 03:01:21;;;;;;;22.80;10.50;;;;;;;15.55;89.97;95992.03;5018574;28;20238;-77
2023/10/05 03:03:47;;;;;;;22.80;10.13;;;;;;;15.36;90.79;95991.78;5011749;28;20230;-77
2023/10/05 03:06:16;;;;;;;18.53;9.80;;;;;;;15.31;90.97;95994.22;5015827;28;20230;-77
2023/10/05 03:08:43;;;;;;;18.27;9.83;;;;;;;15.27;90.94;95994.84;5005341;28;20230;-78
2023/10/05 03:11:09;;;;;;;20.60;9.93;;;;;;;15.27;90.49;95984.28;5021274;28;20308;-78
2023/10/05 03:13:38;;;;;;;19.30;9.70;;;;;;;15.20;91.46;95984.28;5014150;28;20762;-77
2023/10/05 03:16:10;;;;;;;22.03;9.93;;;;;;;15.38;90.06;95988.97;5019879;28;20309;-78
2023/10/05 03:18:40;;;;;;;20.53;9.47;;;;;;;15.50;89.46;95984.72;5003449;28;20238;-77
2023/10/05 03:21:12;;;;;;;20.60;10.17;;;;;;;15.30;90.22;95989.97;5023151;28;20303;-76
2023/10/05 03:23:40;;;;;;;20.33;9.60;;;;;;;15.25;90.66;95983.66;5022005;28;20234;-79
2023/10/05 03:26:07;;;;;;;21.40;9.80;;;;;;;15.40;89.54;95989.56;4996382;28;20230;-77
2023/10/05 03:28:35;;;;;;;22.27;9.90;;;;;;;15.28;89.87;95989.38;5012250;28;20258;-77
2023/10/05 03:31:06;;;;;;;22.43;9.60;;;;;;;15.24;90.96;95995.22;4996992;28;20226;-77
2023/10/05 03:33:34;;;;;;;18.53;9.90;;;;;;;15.40;89.95;95986.94;5016954;28;20719;-79
2023/10/05 03:36:06;;;;;;;19.80;10.10;;;;;;;15.38;90.55;95987.13;5019372;28;20249;-78
2023/10/05 03:38:32;;;;;;;21.40;10.17;;;;;;;15.31;91.04;95996.03;5037774;28;20269;-78
2023/10/05 03:41:04;;;;;;;21.93;10.60;;;;;;;15.22;91.64;95998.06;5000278;28;20638;-78
2023/10/05 03:43:31;;;;;;;21.57;10.10;;;;;;;15.16;92.39;95992.81;5004373;28;20269;-77
2023/10/05 03:45:57;;;;;;;18.03;9.83;;;;;;;15.29;91.64;95998.91;4996090;28;20229;-77
2023/10/05 03:48:22;;;;;;;19.80;9.97;;;;;;;15.29;90.94;96003.34;4997313;28;20244;-77
2023/10/05 03:50:48;;;;;;;23.97;10.77;;;;;;;15.26;92.31;95994.00;4998499;28;20280;-77
2023/10/05 03:53:15;;;;;;;24.43;10.33;;;;;;;15.28;92.63;96001.75;4981179;28;20234;-78
2023/10/05 03:55:41;;;;;;;23.00;10.93;;;;;;;15.37;92.64;96000.53;4997478;28;20231;-78
2023/10/05 03:58:07;;;;;;;21.20;10.87;;;;;;;15.51;91.82;96002.19;5023203;28;20245;-77
2023/10/05 04:00:35;;;;;;;26.23;11.60;;;;;;;15.41;92.85;96001.72;4987410;28;20260;-78
2023/10/05 04:03:02;;;;;;;25.40;11.13;;;;;;;15.29;93.47;96006.00;4999856;28;20254;-79
2023/10/05 04:05:27;;;;;;;20.93;10.43;;;;;;;15.27;93.57;96003.56;4985412;28;20265;-77
2023/10/05 04:07:55;;;;;;;28.23;12.13;;;;;;;15.28;93.19;96004.38;5017965;28;20226;-78
2023/10/05 04:10:23;;;;;;;26.20;11.30;;;;;;;15.05;93.89;96015.28;4991400;28;20297;-78
2023/10/05 04:12:51;;;;;;;21.57;11.00;;;;;;;14.78;95.59;96014.41;5008194;28;20755;-77
2023/10/05 04:15:18;;;;;;;21.50;10.50;;;;;;;14.73;95.37;96008.94;5003451;28;20745;-76
2023/10/05 04:17:48;;;;;;;19.77;10.43;;;;;;;14.82;95.37;96004.28;5025397;28;20372;-78
2023/10/05 04:20:19;;;;;;;24.07;10.90;;;;;;;14.69;95.63;96009.50;5010449;28;20264;-78
2023/10/05 04:22:47;;;;;;;23.57;10.83;;;;;;;14.71;96.11;96010.94;5017976;28;20831;-78
2023/10/05 04:25:16;;;;;;;22.40;11.10;;;;;;;14.70;96.24;96011.16;5004119;28;20237;-78
2023/10/05 04:27:42;;;;;;;21.97;11.03;;;;;;;14.78;95.66;96008.34;5041496;28;20256;-77
2023/10/05 04:30:12;;;;;;;21.83;11.10;;;;;;;14.61;97.31;96009.72;5009638;28;20738;-78
2023/10/05 04:32:38;;;;;;;22.33;10.67;;;;;;;14.69;96.41;96007.69;5040896;28;20765;-79
2023/10/05 04:35:14;;;;;;;21.40;10.53;;;;;;;14.65;96.62;96009.13;5008426;28;20308;-77
2023/10/05 04:37:39;;;;;;;20.57;10.83;;;;;;;14.64;96.92;96020.66;5026352;28;20381;-77
2023/10/05 04:40:09;;;;;;;21.70;10.50;;;;;;;14.55;97.68;96019.19;5021474;28;20616;-77
2023/10/05 04:42:34;;;;;;;21.63;11.13;;;;;;;14.61;97.81;96013.16;5024951;28;20230;-78
2023/10/05 04:45:07;;;;;;;22.73;11.03;;;;;;;14.63;98.24;96023.50;5018910;28;20866;-77
2023/10/05 04:47:33;;;;;;;28.00;11.30;;;;;;;14.65;98.18;96024.91;5026124;28;20237;-77
2023/10/05 04:49:58;;;;;;;23.93;11.30;;;;;;;14.45;99.28;96029.28;5041472;28;20813;-77
2023/10/05 04:52:24;;;;;;;24.17;11.13;;;;;;;14.50;99.33;96037.41;5021379;28;20233;-77
2023/10/05 04:54:57;;;;;;;23.70;11.13;;;;;;;14.54;99.37;96032.59;5025209;28;20280;-79
2023/10/05 04:57:35;;;;;;;26.77;11.63;;;;;;;14.76;98.13;96036.69;5040453;28;20237;-77
2023/10/05 05:00:48;;;;;;;25.87;12.40;;;;;;;14.60;98.92;96035.25;5003931;28;20241;-77
2023/10/05 05:05:40;;;;;;;23.77;11.27;;;;;;;14.75;98.09;96046.44;5008087;28;20738;-76
2023/10/05 05:08:06;;;;;;;25.67;11.77;;;;;;;14.73;98.45;96045.03;5018324;28;20312;-76
2023/10/05 05:10:31;;;;;;;25.93;11.60;;;;;;;14.81;97.77;96045.66;5013252;28;20224;-79
2023/10/05 05:12:57;;;;;;;27.80;12.20;;;;;;;14.84;97.94;96042.63;5018674;28;20234;-78
2023/10/05 05:15:23;;;;;;;24.53;11.90;;;;;;;14.74;98.72;96049.28;5019093;28;20234;-77
2023/10/05 05:17:49;;;;;;;27.97;11.87;;;;;;;14.99;97.31;96055.66;5022768;28;20909;-77
2023/10/05 05:20:15;;;;;;;28.63;12.00;;;;;;;15.08;96.31;96054.44;4998872;28;20229;-77
2023/10/05 05:22:40;;;;;;;23.70;11.23;;;;;;;15.13;95.72;96056.50;5015575;28;21083;-78
2023/10/05 05:25:06;;;;;;;26.00;11.07;;;;;;;15.07;95.87;96057.28;5022914;28;20229;-77
2023/10/05 05:27:33;;;;;;;25.97;11.17;;;;;;;15.02;95.67;96057.09;5006549;28;20230;-77
2023/10/05 05:29:59;;;;;;;25.57;11.00;;;;;;;15.05;95.63;96060.13;5016693;28;20255;-77
2023/10/05 05:32:24;;;;;;;22.27;10.43;;;;;;;15.04;95.53;96052.41;5015138;28;20261;-78
2023/10/05 05:34:50;;;;;;;20.10;10.57;;;;;;;15.04;95.64;96066.41;5019529;28;20711;-77
2023/10/05 05:37:28;;;;;;;26.67;10.50;;;;;;;15.09;95.20;96063.19;5023916;28;20265;-78
2023/10/05 05:39:54;;;;;;;22.00;10.37;;;;;;;15.08;95.42;96066.81;5009251;28;20291;-70
2023/10/05 05:42:20;;;;;;;25.57;10.77;;;;;;;15.13;94.80;96070.50;5002242;28;20326;-72
2023/10/05 05:44:45;;;;;;;33.50;12.20;;;;;;;15.11;94.50;96071.69;5000260;28;20297;-70
2023/10/05 05:47:14;;;;;;;27.53;11.37;;;;;;;15.13;93.49;96070.50;5018636;28;20258;-70
2023/10/05 05:49:45;;;;;;;27.80;11.67;;;;;;;15.31;92.69;96075.19;5007339;28;20231;-69
2023/10/05 05:52:11;;;;;;;29.77;10.53;;;;;;;15.42;92.31;96066.69;5007437;28;20237;-70
2023/10/05 05:54:37;;;;;;;37.63;10.73;;;;;;;15.50;91.95;96074.44;5017874;28;20259;-70
2023/10/05 05:57:06;;;;;;;21.50;10.73;;;;;;;15.49;91.52;96072.81;5017607;28;20287;-70
2023/10/05 05:59:34;;;;;;;22.20;10.00;;;;;;;15.60;91.09;96074.84;5001748;28;20285;-70
2023/10/05 06:02:10;;;;;;;28.17;10.00;;;;;;;15.59;91.03;96086.44;5003722;28;20246;-69
2023/10/05 06:04:36;;;;;;;29.80;9.70;;;;;;;15.72;89.79;96083.78;5024233;28;20312;-69
2023/10/05 06:07:08;;;;;;;22.43;9.43;;;;;;;15.73;89.41;96090.72;5017072;28;20229;-70
2023/10/05 06:09:33;;;;;;;32.20;10.17;;;;;;;15.84;89.06;96090.09;5023099;28;20226;-69
2023/10/05 06:12:02;;;;;;;25.37;9.60;;;;;;;15.88;87.60;96096.59;4986199;28;20219;-69
2023/10/05 06:14:31;;;;;;;22.53;9.20;;;;;;;15.97;86.65;96095.38;5023702;28;20241;-69
2023/10/05 06:16:56;;;;;;;22.67;9.00;;;;;;;16.04;86.52;96090.09;5018489;28;20222;-70
2023/10/05 06:19:23;;;;;;;21.10;8.83;;;;;;;16.11;85.35;96097.00;5006831;28;20241;-69
2023/10/05 06:21:48;;;;;;;20.23;8.07;;;;;;;16.19;84.62;96095.97;5019851;28;20222;-70
2023/10/05 06:24:14;;;;;;;26.03;8.33;;;;;;;16.27;83.91;96095.75;4999899;28;20773;-71
2023/10/05 06:26:40;;;;;;;20.20;7.80;;;;;;;16.37;82.51;96096.16;5000133;28;20230;-69
2023/10/05 06:29:08;;;;;;;28.50;7.97;;;;;;;16.44;82.88;96088.19;4996360;28;20251;-70
2023/10/05 06:31:35;;;;;;;26.17;7.90;;;;;;;16.49;82.71;96094.50;4993470;28;20226;-69
2023/10/05 06:34:01;;;;;;;23.67;7.63;;;;;;;16.53;82.42;96097.56;5023167;28;20250;-70
2023/10/05 06:36:26;;;;;;;27.53;7.60;;;;;;;16.54;81.97;96096.53;5016472;28;20961;-69
2023/10/05 06:38:52;;;;;;;24.10;7.87;;;;;;;16.63;81.26;96097.94;5023129;28;20233;-79
2023/10/05 06:41:22;;;;;;;21.83;7.27;;;;;;;16.56;80.73;96095.31;5023097;28;20328;-78
2023/10/05 06:43:49;;;;;;;30.43;7.57;;;;;;;16.65;80.70;96104.66;5022265;28;20223;-76
2023/10/05 06:46:17;;;;;;;29.90;7.73;;;;;;;16.72;81.24;96096.69;5000490;28;20313;-78
2023/10/05 06:48:43;;;;;;;17.27;7.90;;;;;;;16.74;80.45;96102.59;5018759;28;20229;-79
2023/10/05 06:51:09;;;;;;;19.77;7.00;;;;;;;16.73;80.08;96096.50;5016681;28;20260;-78
2023/10/05 06:53:37;;;;;;;19.40;7.10;;;;;;;16.78;79.25;96098.50;5022492;28;20624;-78
2023/10/05 06:56:03;;;;;;;19.93;7.47;;;;;;;16.90;79.29;96101.31;5008976;28;20237;-78
2023/10/05 06:58:28;;;;;;;18.77;7.93;;;;;;;16.90;79.02;96102.13;4989532;28;20239;-79
2023/10/05 07:00:54;;;;;;;17.53;6.93;;;;;;;17.02;78.84;96097.81;5017716;28;20316;-78
2023/10/05 07:03:20;;;;;;;17.83;6.83;;;;;;;17.06;79.06;96093.72;5022852;28;20932;-76
2023/10/05 07:05:46;;;;;;;20.30;6.40;;;;;;;16.99;77.58;96106.16;5001632;28;20234;-78
2023/10/05 07:08:14;;;;;;;24.33;6.67;;;;;;;17.00;76.94;96091.91;5018567;28;20237;-78
2023/10/05 07:10:40;;;;;;;14.07;6.13;;;;;;;17.13;76.46;96096.31;5024073;28;20781;-78
2023/10/05 07:13:08;;;;;;;20.87;6.30;;;;;;;17.20;75.91;96097.91;5014096;28;20238;-77
2023/10/05 07:15:34;;;;;;;17.83;6.43;;;;;;;17.16;76.83;96096.72;4999548;28;20238;-77
2023/10/05 07:18:00;;;;;;;21.47;5.80;;;;;;;17.26;76.07;96097.09;5017106;28;20384;-77
2023/10/05 07:20:27;;;;;;;19.23;6.20;;;;;;;17.36;75.91;96099.28;5013166;28;20295;-78
2023/10/05 07:22:53;;;;;;;18.57;5.80;;;;;;;17.34;74.35;96104.75;4988631;28;21001;-79
2023/10/05 07:25:18;;;;;;;15.83;5.70;;;;;;;17.41;74.40;96110.81;4995017;28;20241;-78
2023/10/05 07:27:44;;;;;;;18.33;5.90;;;;;;;17.53;74.54;96096.97;5019938;28;20288;-79
2023/10/05 07:30:10;;;;;;;14.80;5.63;;;;;;;17.50;73.71;96098.16;5016949;28;20234;-77
2023/10/05 07:32:36;;;;;;;16.80;5.20;;;;;;;17.58;73.89;96100.56;5001744;28;20304;-79
2023/10/05 07:35:02;;;;;;;19.33;5.83;;;;;;;17.64;74.10;96098.91;5005249;28;20226;-78
2023/10/05 07:37:27;;;;;;;12.67;5.37;;;;;;;17.63;73.72;96097.28;5023264;28;20300;-78
2023/10/05 07:39:53;;;;;;;17.53;5.33;;;;;;;17.66;73.68;96099.50;5008792;28;20234;-77
2023/10/05 07:42:18;;;;;;;17.70;5.20;;;;;;;17.76;73.23;96102.50;5004461;28;20241;-78
2023/10/05 07:44:44;;;;;;;18.57;5.80;;;;;;;17.63;73.34;96099.91;5023156;28;20225;-78
2023/10/05 07:47:13;;;;;;;19.53;5.47;;;;;;;17.72;73.02;96101.31;5020379;28;20314;-69
2023/10/05 07:49:39;;;;;;;15.00;5.80;;;;;;;17.75;73.19;96100.84;4992202;28;20226;-69
2023/10/05 07:52:07;;;;;;;15.20;5.30;;;;;;;17.82;72.46;96102.44;4989708;28;20250;-78
2023/10/05 07:54:34;;;;;;;18.93;6.20;;;;;;;17.90;72.38;96104.00;5010623;28;20226;-77
2023/10/05 07:57:03;;;;;;;11.63;5.43;;;;;;;17.96;72.28;96103.16;4994273;28;20261;-78
2023/10/05 07:59:28;;;;;;;17.23;6.03;;;;;;;17.95;72.20;96093.59;5009188;28;20737;-76
2023/10/05 08:01:55;;;;;;;19.77;5.80;;;;;;;18.14;72.97;96090.78;5015990;28;20380;-78
2023/10/05 08:04:22;;;;;;;13.40;5.77;;;;;;;18.22;72.07;96088.88;5011661;28;20240;-76
2023/10/05 08:06:48;;;;;;;18.07;5.90;;;;;;;18.18;72.18;96086.66;4993998;28;20230;-77
2023/10/05 08:09:15;;;;;;;12.67;6.20;;;;;;;18.27;71.85;96089.81;4987904;28;20257;-69
2023/10/05 08:11:43;;;;;;;14.20;6.07;;;;;;;18.20;71.25;96090.94;5021120;28;20877;-70
2023/10/05 08:14:12;;;;;;;15.90;5.67;;;;;;;18.30;71.37;96078.78;5022829;28;20230;-70
2023/10/05 08:16:38;;;;;;;17.10;6.00;;;;;;;18.43;71.15;96078.69;5003476;28;20222;-69
2023/10/05 08:19:05;;;;;;;20.23;6.00;;;;;;;18.42;71.14;96079.69;5027174;28;20262;-69
2023/10/05 08:21:31;;;;;;;15.03;6.30;;;;;;;18.43;71.18;96078.69;5025468;28;20234;-70
2023/10/05 08:23:57;;;;;;;18.10;6.00;;;;;;;18.58;71.28;96071.19;5009113;28;20233;-70
2023/10/05 08:26:24;;;;;;;19.63;6.47;;;;;;;18.63;71.20;96060.72;4992393;28;20246;-70
2023/10/05 08:28:49;;;;;;;20.37;6.30;;;;;;;18.67;70.98;96059.28;5003213;28;20258;-70
2023/10/05 08:31:16;;;;;;;23.20;6.73;;;;;;;18.70;70.70;96069.41;5019433;28;20254;-70
2023/10/05 08:33:41;;;;;;;17.83;7.13;;;;;;;18.67;71.16;96072.53;5017503;28;20304;-70
2023/10/05 08:36:13;;;;;;;19.07;6.40;;;;;;;18.87;70.56;96066.19;5001155;28;20242;-70
2023/10/05 08:38:39;;;;;;;17.90;6.70;;;;;;;18.95;70.64;96068.50;5008680;28;20312;-70
2023/10/05 08:41:07;;;;;;;16.60;6.50;;;;;;;18.92;70.14;96071.59;5008764;28;20329;-68
2023/10/05 08:43:39;;;;;;;18.87;6.70;;;;;;;18.96;70.27;96070.97;5040897;28;20248;-69
2023/10/05 08:46:05;;;;;;;17.87;6.57;;;;;;;19.01;69.79;96063.13;5007979;28;20218;-70
2023/10/05 08:51:10;;;;;;;22.77;8.30;;;;;;;19.09;70.55;96065.47;5020118;28;20226;-69
2023/10/05 08:53:55;;;;;;;18.30;6.80;;;;;;;19.15;69.93;96059.28;5023607;28;21037;-69
2023/10/05 08:56:22;;;;;;;21.10;7.07;;;;;;;19.25;69.44;96062.19;4994261;28;20234;-70
2023/10/05 08:58:48;;;;;;;21.97;7.37;;;;;;;19.32;68.71;96054.94;5006064;28;20230;-69
2023/10/05 09:01:33;;;;;;;19.33;7.07;;;;;;;19.37;69.01;96046.31;5018660;28;20237;-70
2023/10/05 09:06:56;;;;;;;19.53;7.47;;;;;;;19.47;68.80;96055.38;4993730;28;20237;-70
2023/10/05 09:09:38;;;;;;;20.33;7.63;;;;;;;19.53;68.99;96051.00;5008749;28;20234;-70
2023/10/05 09:12:41;;;;;;;21.17;7.53;;;;;;;19.65;68.82;96048.38;5024750;28;20730;-69
2023/10/05 09:15:28;;;;;;;26.90;7.13;;;;;;;19.72;68.71;96049.91;5009068;28;20397;-70
2023/10/05 09:17:58;;;;;;;17.53;7.67;;;;;;;19.84;68.50;96053.38;5023799;28;20226;-69
2023/10/05 09:20:33;;;;;;;21.33;7.80;;;;;;;19.91;68.10;96053.25;5026020;28;20370;-69
2023/10/05 09:23:00;;;;;;;19.70;7.70;;;;;;;20.06;67.58;96043.00;5009296;28;20287;-69
2023/10/05 09:25:36;;;;;;;19.33;7.40;;;;;;;20.24;67.86;96042.09;4988638;28;20279;-69
2023/10/05 09:28:44;;;;;;;22.27;8.00;;;;;;;20.28;66.69;96035.25;4992054;28;20253;-68
2023/10/05 09:30:59;;;;;;;17.80;7.53;;;;;;;20.28;67.42;96037.91;5016409;28;20377;-69
2023/10/05 09:33:26;;;;;;;20.13;7.87;;;;;;;20.39;66.77;96032.63;5021877;28;20241;-69
2023/10/05 09:36:07;;;;;;;21.33;8.10;;;;;;;20.31;66.96;96026.81;5013919;28;20688;-68
2023/10/05 09:38:40;;;;;;;19.67;7.70;;;;;;;20.34;67.45;96029.03;5020744;28;20233;-69
2023/10/05 09:41:06;;;;;;;17.77;8.13;;;;;;;20.47;67.33;96023.44;5007652;28;20240;-72
2023/10/05 09:43:37;;;;;;;21.00;8.40;;;;;;;20.66;66.51;96027.56;5001979;28;20234;-70
2023/10/05 09:46:02;;;;;;;21.60;8.40;;;;;;;20.55;66.65;96018.59;5000354;28;20253;-69
2023/10/05 09:48:31;;;;;;;22.70;8.67;;;;;;;20.62;66.71;96013.13;4991297;28;20813;-70
2023/10/05 09:50:59;;;;;;;24.20;8.33;;;;;;;20.78;66.31;96015.03;5014475;28;20226;-69
2023/10/05 09:53:24;;;;;;;18.40;8.27;;;;;;;20.88;66.49;96011.78;5003342;28;20313;-70
2023/10/05 09:55:53;;;;;;;21.77;8.53;;;;;;;20.94;66.12;96008.19;5006874;28;20222;-69
2023/10/05 09:58:20;;;;;;;25.87;13.10;;;;;;;21.06;64.90;96006.31;5001269;28;20786;-69
2023/10/05 10:03:11;;;;;;;21.70;8.67;;;;;;;20.95;65.00;96002.63;5016050;28;20242;-69
2023/10/05 10:05:42;;;;;;;18.73;8.70;;;;;;;21.05;64.86;96002.84;4993230;28;20244;-69
2023/10/05 10:08:20;;;;;;;23.33;8.77;;;;;;;21.12;64.07;95998.19;5023539;28;20234;-69
2023/10/05 10:11:00;;;;;;;20.50;8.87;;;;;;;21.18;64.96;95997.25;5023168;28;20234;-70
2023/10/05 10:13:28;;;;;;;23.40;8.23;;;;;;;21.29;65.66;95991.03;5017492;28;20662;-70
2023/10/05 10:15:56;;;;;;;17.43;8.03;;;;;;;21.37;64.94;95979.97;5003595;28;20352;-69
2023/10/05 10:18:34;;;;;;;23.60;8.50;;;;;;;21.49;64.59;95977.25;5038286;28;20350;-70
2023/10/05 10:21:01;;;;;;;19.20;8.43;;;;;;;21.63;64.13;95980.41;5008418;28;20609;-70
2023/10/05 10:23:35;;;;;;;19.03;8.57;;;;;;;21.61;63.04;95975.31;4985295;28;20242;-70
2023/10/05 10:26:16;;;;;;;20.33;8.33;;;;;;;21.77;62.70;95971.84;5023309;28;20275;-70
2023/10/05 10:31:16;;;;;;;17.87;8.77;;;;;;;21.87;61.91;95968.56;5018957;28;20322;-70
2023/10/05 10:33:43;;;;;;;18.90;8.50;;;;;;;21.81;62.08;95966.81;5019071;28;20260;-69
2023/10/05 10:36:19;;;;;;;20.10;8.63;;;;;;;21.82;62.17;95963.13;5006857;28;20684;-69
2023/10/05 10:38:46;;;;;;;17.17;8.33;;;;;;;21.84;62.67;95961.84;5005624;28;20237;-70
2023/10/05 10:41:15;;;;;;;20.83;8.10;;;;;;;21.85;61.60;95960.78;4998514;28;20337;-70
2023/10/05 10:43:49;;;;;;;21.90;8.50;;;;;;;22.02;61.36;95948.25;4988351;28;20234;-69
2023/10/05 10:46:33;;;;;;;19.00;8.53;;;;;;;22.12;61.28;95942.25;5022813;28;20238;-69
2023/10/05 10:48:59;;;;;;;17.83;8.03;;;;;;;22.24;60.62;95948.28;4991545;28;20241;-70
2023/10/05 10:51:27;;;;;;;19.87;8.30;;;;;;;22.39;60.00;95937.81;5006167;28;20249;-70
2023/10/05 10:53:56;;;;;;;19.00;9.07;;;;;;;22.35;60.06;95936.69;5005877;28;20231;-70
2023/10/05 10:56:44;;;;;;;23.67;9.10;;;;;;;22.43;60.16;95928.25;5006546;28;20241;-70
2023/10/05 10:59:13;;;;;;;24.63;8.40;;;;;;;22.58;59.15;95931.09;5016097;28;20238;-70
2023/10/05 11:01:52;;;;;;;18.37;8.40;;;;;;;22.75;58.87;95915.84;5013971;28;20288;-71
2023/10/05 11:04:25;;;;;;;20.37;8.03;;;;;;;22.90;58.97;95914.38;5001484;28;20702;-69
2023/10/05 11:07:05;;;;;;;18.80;8.13;;;;;;;22.93;57.97;95916.56;4983193;28;20270;-70
2023/10/05 11:09:46;;;;;;;19.73;8.10;;;;;;;22.99;58.15;95904.84;4987291;28;20712;-69
2023/10/05 11:12:15;;;;;;;18.33;8.30;;;;;;;23.19;56.74;95902.38;5016054;28;20306;-69
2023/10/05 11:14:45;;;;;;;21.77;8.50;;;;;;;23.16;56.82;95900.22;5003430;28;20600;-69
2023/10/05 11:17:30;;;;;;;19.47;8.47;;;;;;;23.25;56.82;95888.00;4984070;28;20237;-70
2023/10/05 11:20:12;;;;;;;19.47;7.97;;;;;;;23.17;57.26;95886.59;5005356;28;20250;-70
2023/10/05 11:22:42;;;;;;;15.27;7.77;;;;;;;23.13;56.50;95890.03;4993625;28;20234;-70
2023/10/05 11:25:14;;;;;;;15.07;7.73;;;;;;;22.88;56.06;95882.56;4991857;28;20238;-70
2023/10/05 11:27:44;;;;;;;21.40;8.23;;;;;;;23.09;56.75;95894.28;4997495;28;20786;-69
2023/10/05 11:30:18;;;;;;;16.70;7.77;;;;;;;23.20;56.54;95887.94;4999415;28;20316;-70
2023/10/05 11:32:55;;;;;;;16.27;7.77;;;;;;;23.24;55.95;95873.00;5005159;28;20241;-69
2023/10/05 11:35:28;;;;;;;19.20;7.73;;;;;;;23.25;56.68;95872.78;5006425;28;20246;-70
2023/10/05 11:38:04;;;;;;;19.03;8.30;;;;;;;23.10;56.95;95875.31;5004388;28;20238;-69
2023/10/05 11:40:48;;;;;;;18.17;10.40;;;;;;;23.10;57.05;95875.31;5004438;28;20746;-70
2023/10/05 11:43:15;;;;;;;19.23;8.03;;;;;;;23.16;56.91;95870.81;5017980;28;20238;-70
2023/10/05 11:45:57;;;;;;;20.88;8.00;;;;;;;23.23;55.88;95863.41;4997774;28;20691;-68
2023/10/05 11:48:40;;;;;;;21.42;8.20;;;;;;;23.35;55.61;95867.53;5014337;28;20258;-69
2023/10/05 11:51:09;;;;;;;16.43;7.67;;;;;;;23.18;56.81;95872.19;5021738;28;20329;-69
2023/10/05 11:53:37;;;;;;;20.13;8.23;;;;;;;23.22;55.89;95859.09;4989405;28;20238;-70